James L. Oberstar — WDC6154 — position and weather

sailwx.info

Track history (hours):
 
Tides and Currents Weather Stations Pressure Air Temp Water Temp Dewpoint Dewpoint Depression Visibility Wind Speed Wind Dir Waves Ship Positions

James L. Oberstar

Owner: Destin Trading Corporation, harahan, LA. More information available from US FCC via Universal Licensing System and Coast Guard Vessel Documentation Center.

Last reported at 2017-Mar-23 07:27 UTC. Time now 2017-Mar-29 09:07 UTC.
Position N 29°60' W 090°24'.

Length 26 m.

Type: Towing. MMSI: 367052120.

Date/timePositionNaut miles runAvg speedWind from/ knotsBaromVisibWave heightAir tempDewpointWater temp
2017-Mar-23 07:27N 29°60' W 090°24'0 0.0
2017-Mar-23 04:24N 29°60' W 090°24'26 0.6
2017-Mar-21 07:32N 29°34' W 090°29'5 4.7
2017-Mar-21 06:33N 29°34' W 090°34'4 4.4
2017-Mar-21 05:33N 29°36' W 090°39'3 3.1
2017-Mar-21 04:33N 29°36' W 090°43'3 3.0
2017-Mar-21 03:33N 29°34' W 090°44'1 1.4
2017-Mar-21 02:33N 29°33' W 090°45'0 0.1
2017-Mar-21 01:33N 29°33' W 090°45'0 0.4
2017-Mar-21 00:33N 29°32' W 090°46'5 5.0
2017-Mar-20 23:33N 29°32' W 090°52'53 2.2
2017-Mar-19 23:29N 29°48' W 091°49'4 4.1
2017-Mar-19 22:28N 29°51' W 091°53'4 4.7
2017-Mar-19 21:33N 29°50' W 091°58'5 4.8
2017-Mar-19 20:33N 29°49' W 092°03'5 4.8
2017-Mar-19 19:33N 29°47' W 092°08'4 3.6
2017-Mar-19 18:33N 29°47' W 092°13'2 2.3
2017-Mar-19 17:33N 29°48' W 092°15'4 4.4
2017-Mar-19 16:33N 29°50' W 092°19'3 3.1
2017-Mar-19 15:33N 29°52' W 092°22'3 2.9
2017-Mar-19 14:33N 29°53' W 092°25'0 0.0
2017-Mar-19 13:33N 29°53' W 092°25'0 0.0
2017-Mar-19 12:33N 29°53' W 092°25'0 0.0
2017-Mar-19 11:33N 29°53' W 092°25'0 0.0
2017-Mar-19 10:32N 29°53' W 092°25'3 2.7
2017-Mar-19 09:28N 29°54' W 092°29'8 3.8
2017-Mar-19 07:30N 29°55' W 092°37'24 4.0
2017-Mar-19 01:30N 29°56' W 093°05'4 4.3
2017-Mar-19 00:33N 29°56' W 093°10'4 3.9
2017-Mar-18 23:33N 29°59' W 093°12'3 3.5
2017-Mar-18 22:33N 30°02' W 093°15'4 3.9
2017-Mar-18 21:33N 30°05' W 093°17'1 1.2
2017-Mar-18 20:33N 30°06' W 093°18'2 2.0
2017-Mar-18 19:33N 30°05' W 093°20'3 3.3
2017-Mar-18 18:33N 30°04' W 093°24'4 4.5
2017-Mar-18 17:33N 30°04' W 093°29'4 3.9
2017-Mar-18 16:33N 30°04' W 093°33'5 4.7
2017-Mar-18 15:33N 30°04' W 093°39'72 3.3
2017-Mar-17 17:33N 29°29' W 094°52'6 6.5
2017-Mar-17 16:33N 29°35' W 094°56'6 5.8
2017-Mar-17 15:33N 29°40' W 094°59'5 4.9
2017-Mar-17 14:33N 29°44' W 095°02'3 1.1
2017-Mar-17 11:32N 29°45' W 095°06'2 0.1
2017-Mar-16 15:04N 29°47' W 095°05'0 0.0
2017-Mar-16 14:26N 29°47' W 095°05'0 0.0
2017-Mar-15 22:33N 29°47' W 095°05'0 0.0
2017-Mar-15 21:30N 29°47' W 095°05'0 0.1
2017-Mar-15 20:15N 29°47' W 095°05'0 0.1
2017-Mar-15 19:33N 29°47' W 095°05'0 0.0
2017-Mar-15 18:34N 29°47' W 095°05'0 0.0
2017-Mar-15 17:33N 29°47' W 095°05'0 0.0
2017-Mar-15 16:34N 29°47' W 095°05'0 0.0
2017-Mar-15 15:33N 29°47' W 095°05'0 0.0
2017-Mar-15 14:33N 29°47' W 095°05'0 0.0
2017-Mar-15 13:33N 29°47' W 095°05'0 0.0
2017-Mar-15 12:34N 29°47' W 095°05'0 0.2
2017-Mar-15 11:34N 29°47' W 095°05'0 0.0
2017-Mar-15 10:33N 29°47' W 095°05'0 0.0
2017-Mar-15 09:33N 29°47' W 095°05'0 0.0
2017-Mar-15 08:33N 29°47' W 095°05'0 0.0
2017-Mar-15 07:30N 29°47' W 095°05'0 0.0
2017-Mar-15 01:33N 29°47' W 095°05'0 0.0
2017-Mar-15 00:33N 29°47' W 095°05'0 0.1
2017-Mar-14 23:33N 29°47' W 095°05'0 0.0
2017-Mar-14 22:33N 29°47' W 095°05'0 0.0
2017-Mar-14 21:33N 29°47' W 095°05'0 0.1
2017-Mar-14 20:33N 29°47' W 095°05'0 0.0
2017-Mar-14 19:32N 29°47' W 095°05'0 0.1
2017-Mar-14 18:33N 29°47' W 095°05'0 0.1
2017-Mar-14 17:33N 29°47' W 095°05'0 0.0
2017-Mar-14 16:33N 29°47' W 095°05'0 0.0
2017-Mar-14 15:33N 29°47' W 095°05'0 0.3
2017-Mar-14 14:33N 29°47' W 095°04'2 1.7
2017-Mar-14 13:33N 29°46' W 095°05'6 6.1
2017-Mar-14 12:33N 29°42' W 094°59'7 7.3
2017-Mar-14 11:33N 29°35' W 094°56'  
Track history (hours):
 
Tides and Currents Weather Stations Pressure Air Temp Water Temp Dewpoint Dewpoint Depression Visibility Wind Speed Wind Dir Waves Ship Positions

James L. Oberstar

Owner: Destin Trading Corporation, harahan, LA. More information available from US FCC via Universal Licensing System and Coast Guard Vessel Documentation Center.

Last reported at 2017-Mar-23 07:27 UTC. Time now 2017-Mar-29 09:07 UTC.
Position N 29°60' W 090°24'.

Length 26 m.

Type: Towing. MMSI: 367052120.

Date/timePositionNaut miles runAvg speedWind from/ knotsBaromVisibWave heightAir tempDewpointWater temp
2017-Mar-23 07:27N 29°60' W 090°24'0 0.0
2017-Mar-23 04:24N 29°60' W 090°24'26 0.6
2017-Mar-21 07:32N 29°34' W 090°29'5 4.7
2017-Mar-21 06:33N 29°34' W 090°34'4 4.4
2017-Mar-21 05:33N 29°36' W 090°39'3 3.1
2017-Mar-21 04:33N 29°36' W 090°43'3 3.0
2017-Mar-21 03:33N 29°34' W 090°44'1 1.4
2017-Mar-21 02:33N 29°33' W 090°45'0 0.1
2017-Mar-21 01:33N 29°33' W 090°45'0 0.4
2017-Mar-21 00:33N 29°32' W 090°46'5 5.0
2017-Mar-20 23:33N 29°32' W 090°52'53 2.2
2017-Mar-19 23:29N 29°48' W 091°49'4 4.1
2017-Mar-19 22:28N 29°51' W 091°53'4 4.7
2017-Mar-19 21:33N 29°50' W 091°58'5 4.8
2017-Mar-19 20:33N 29°49' W 092°03'5 4.8
2017-Mar-19 19:33N 29°47' W 092°08'4 3.6
2017-Mar-19 18:33N 29°47' W 092°13'2 2.3
2017-Mar-19 17:33N 29°48' W 092°15'4 4.4
2017-Mar-19 16:33N 29°50' W 092°19'3 3.1
2017-Mar-19 15:33N 29°52' W 092°22'3 2.9
2017-Mar-19 14:33N 29°53' W 092°25'0 0.0
2017-Mar-19 13:33N 29°53' W 092°25'0 0.0
2017-Mar-19 12:33N 29°53' W 092°25'0 0.0
2017-Mar-19 11:33N 29°53' W 092°25'0 0.0
2017-Mar-19 10:32N 29°53' W 092°25'3 2.7
2017-Mar-19 09:28N 29°54' W 092°29'8 3.8
2017-Mar-19 07:30N 29°55' W 092°37'24 4.0
2017-Mar-19 01:30N 29°56' W 093°05'4 4.3
2017-Mar-19 00:33N 29°56' W 093°10'4 3.9
2017-Mar-18 23:33N 29°59' W 093°12'3 3.5
2017-Mar-18 22:33N 30°02' W 093°15'4 3.9
2017-Mar-18 21:33N 30°05' W 093°17'1 1.2
2017-Mar-18 20:33N 30°06' W 093°18'2 2.0
2017-Mar-18 19:33N 30°05' W 093°20'3 3.3
2017-Mar-18 18:33N 30°04' W 093°24'4 4.5
2017-Mar-18 17:33N 30°04' W 093°29'4 3.9
2017-Mar-18 16:33N 30°04' W 093°33'5 4.7
2017-Mar-18 15:33N 30°04' W 093°39'72 3.3
2017-Mar-17 17:33N 29°29' W 094°52'6 6.5
2017-Mar-17 16:33N 29°35' W 094°56'6 5.8
2017-Mar-17 15:33N 29°40' W 094°59'5 4.9
2017-Mar-17 14:33N 29°44' W 095°02'3 1.1
2017-Mar-17 11:32N 29°45' W 095°06'2 0.1
2017-Mar-16 15:04N 29°47' W 095°05'0 0.0
2017-Mar-16 14:26N 29°47' W 095°05'0 0.0
2017-Mar-15 22:33N 29°47' W 095°05'0 0.0
2017-Mar-15 21:30N 29°47' W 095°05'0 0.1
2017-Mar-15 20:15N 29°47' W 095°05'0 0.1
2017-Mar-15 19:33N 29°47' W 095°05'0 0.0
2017-Mar-15 18:34N 29°47' W 095°05'0 0.0
2017-Mar-15 17:33N 29°47' W 095°05'0 0.0
2017-Mar-15 16:34N 29°47' W 095°05'0 0.0
2017-Mar-15 15:33N 29°47' W 095°05'0 0.0
2017-Mar-15 14:33N 29°47' W 095°05'0 0.0
2017-Mar-15 13:33N 29°47' W 095°05'0 0.0
2017-Mar-15 12:34N 29°47' W 095°05'0 0.2
2017-Mar-15 11:34N 29°47' W 095°05'0 0.0
2017-Mar-15 10:33N 29°47' W 095°05'0 0.0
2017-Mar-15 09:33N 29°47' W 095°05'0 0.0
2017-Mar-15 08:33N 29°47' W 095°05'0 0.0
2017-Mar-15 07:30N 29°47' W 095°05'0 0.0
2017-Mar-15 01:33N 29°47' W 095°05'0 0.0
2017-Mar-15 00:33N 29°47' W 095°05'0 0.1
2017-Mar-14 23:33N 29°47' W 095°05'0 0.0
2017-Mar-14 22:33N 29°47' W 095°05'0 0.0
2017-Mar-14 21:33N 29°47' W 095°05'0 0.1
2017-Mar-14 20:33N 29°47' W 095°05'0 0.0
2017-Mar-14 19:32N 29°47' W 095°05'0 0.1
2017-Mar-14 18:33N 29°47' W 095°05'0 0.1
2017-Mar-14 17:33N 29°47' W 095°05'0 0.0
2017-Mar-14 16:33N 29°47' W 095°05'0 0.0
2017-Mar-14 15:33N 29°47' W 095°05'0 0.3
2017-Mar-14 14:33N 29°47' W 095°04'2 1.7
2017-Mar-14 13:33N 29°46' W 095°05'6 6.1
2017-Mar-14 12:33N 29°42' W 094°59'7 7.3
2017-Mar-14 11:33N 29°35' W 094°56'  

Dump ship's entire track history